Time;durP1;ratioP1;P1;durP2;ratioP2;P2;SDS_P1;SDS_P2;PMS_P1;PMS_P2;Temp;Humidity;BMP_temperature;BMP_pressure;BME280_temperature;BME280_humidity;BME280_pressure;Samples;Min_cycle;Max_cycle;Signal;HPM_P1;HPM_P2
2023/11/05 00:00:18;;;;;;;1.50;1.40;;;;;;;17.95;57.86;95993.85;104101;1280;65688;-39
2023/11/05 00:02:45;;;;;;;1.50;1.40;;;;;;;17.95;57.89;96002.98;103403;1280;72430;-37
2023/11/05 00:05:14;;;;;;;1.40;1.30;;;;;;;17.95;57.87;96007.16;103449;1282;63693;-37
2023/11/05 00:07:41;;;;;;;1.30;1.20;;;;;;;17.95;57.80;96011.34;103491;1280;62136;-37
2023/11/05 00:10:08;;;;;;;1.20;1.10;;;;;;;17.95;57.75;96009.63;103440;1280;75293;-37
2023/11/05 00:12:35;;;;;;;1.30;1.20;;;;;;;17.95;57.77;96013.96;103551;1282;65792;-37
2023/11/05 00:15:03;;;;;;;1.30;1.20;;;;;;;17.95;57.82;96020.23;103502;1280;72415;-37
2023/11/05 00:17:29;;;;;;;1.30;1.20;;;;;;;17.95;57.79;96018.77;103772;1282;62059;-37
2023/11/05 00:19:57;;;;;;;1.40;1.30;;;;;;;17.94;57.74;96014.83;103475;1282;62191;-37
2023/11/05 00:22:24;;;;;;;1.20;1.10;;;;;;;17.95;57.88;96016.21;103475;1280;75332;-39
2023/11/05 00:24:50;;;;;;;1.40;1.30;;;;;;;17.94;57.87;96017.15;103534;1282;63926;-37
2023/11/05 00:27:17;;;;;;;1.40;1.30;;;;;;;17.94;57.87;96020.95;103623;1281;72967;-37
2023/11/05 00:29:43;;;;;;;1.80;1.20;;;;;;;17.94;57.83;96020.86;103604;1280;62031;-37
2023/11/05 00:32:11;;;;;;;1.40;1.20;;;;;;;17.94;57.85;96020.02;103467;1280;62202;-37
2023/11/05 00:34:38;;;;;;;1.40;1.30;;;;;;;17.93;57.76;96021.63;103504;1282;75224;-37
2023/11/05 00:37:05;;;;;;;1.40;1.20;;;;;;;17.93;57.73;96028.91;103476;1282;66051;-37
2023/11/05 00:39:32;;;;;;;1.20;1.10;;;;;;;17.93;57.82;96029.06;103516;1280;72478;-37
2023/11/05 00:41:58;;;;;;;0.90;0.90;;;;;;;17.93;57.80;96020.08;103532;1282;62188;-37
2023/11/05 00:44:25;;;;;;;1.70;1.10;;;;;;;17.93;57.83;96021.48;103581;1282;62191;-37
2023/11/05 00:46:52;;;;;;;1.70;1.30;;;;;;;17.93;57.79;96020.47;103686;1282;75287;-39
2023/11/05 00:49:18;;;;;;;1.40;1.30;;;;;;;17.92;57.74;96027.67;103778;1282;66068;-37
2023/11/05 00:51:46;;;;;;;1.70;1.10;;;;;;;17.92;57.72;96029.69;103846;1282;72674;-38
2023/11/05 00:54:13;;;;;;;1.30;1.20;;;;;;;17.92;57.73;96026.44;103790;1282;62085;-37
2023/11/05 00:56:40;;;;;;;1.10;1.10;;;;;;;17.92;57.73;96012.66;103841;1280;62164;-37
2023/11/05 00:59:07;;;;;;;1.40;1.30;;;;;;;17.92;57.79;96011.27;103876;1282;76153;-39
2023/11/05 01:01:33;;;;;;;1.40;1.20;;;;;;;17.92;57.83;96012.27;105227;1278;65981;-40
2023/11/05 01:04:00;;;;;;;1.10;1.00;;;;;;;17.92;57.75;96010.34;106571;1279;71439;-39
2023/11/05 01:06:28;;;;;;;1.40;1.30;;;;;;;17.92;57.76;96009.02;103780;1282;62135;-39
2023/11/05 01:08:55;;;;;;;1.30;1.20;;;;;;;17.93;57.77;96010.33;103816;1279;62206;-42
2023/11/05 01:11:21;;;;;;;1.60;1.20;;;;;;;17.93;57.84;96009.17;103846;1279;75423;-37
2023/11/05 01:13:48;;;;;;;1.60;1.20;;;;;;;17.93;57.76;96010.72;103805;1282;66059;-37
2023/11/05 01:16:15;;;;;;;1.10;1.00;;;;;;;17.92;57.76;96013.52;103896;1280;72644;-37
2023/11/05 01:18:41;;;;;;;1.20;1.10;;;;;;;17.92;57.80;96018.61;103809;1282;62098;-37
2023/11/05 01:21:09;;;;;;;1.40;1.10;;;;;;;17.92;57.69;96015.90;103880;1282;62171;-37
2023/11/05 01:23:35;;;;;;;1.30;1.20;;;;;;;17.92;57.74;96016.30;103876;1282;75316;-37
2023/11/05 01:26:02;;;;;;;1.80;1.50;;;;;;;17.92;57.63;96011.73;103582;1280;65998;-38
2023/11/05 01:28:28;;;;;;;1.20;1.10;;;;;;;17.91;57.80;96012.58;103413;1283;72663;-37
2023/11/05 01:30:56;;;;;;;1.40;1.30;;;;;;;17.92;57.73;96010.33;103542;1282;62107;-37
2023/11/05 01:33:23;;;;;;;1.30;1.10;;;;;;;17.91;57.68;96014.73;103533;1282;62837;-37
2023/11/05 01:35:50;;;;;;;1.40;1.10;;;;;;;17.90;57.69;96018.98;103583;1281;75270;-37
2023/11/05 01:38:16;;;;;;;2.10;1.30;;;;;;;17.91;57.76;96025.57;103621;1284;65637;-37
2023/11/05 01:40:44;;;;;;;1.50;1.40;;;;;;;17.90;57.83;96027.83;103643;1279;72352;-37
2023/11/05 01:43:11;;;;;;;1.30;1.20;;;;;;;17.90;57.72;96036.48;103553;1282;62101;-37
2023/11/05 01:45:38;;;;;;;1.40;1.30;;;;;;;17.89;57.78;96040.20;103692;1280;62207;-37
2023/11/05 01:48:06;;;;;;;2.50;1.60;;;;;;;17.90;57.75;96044.69;103439;1281;74181;-37
2023/11/05 01:50:33;;;;;;;1.40;1.10;;;;;;;17.89;57.69;96043.83;103836;1279;65988;-37
2023/11/05 01:53:00;;;;;;;1.30;1.20;;;;;;;17.89;57.72;96040.65;103524;1280;72531;-37
2023/11/05 01:55:26;;;;;;;1.40;1.30;;;;;;;17.88;57.65;96039.72;103955;1282;62088;-37
2023/11/05 01:57:54;;;;;;;1.20;1.10;;;;;;;17.88;57.68;96040.48;103356;1280;62237;-37
2023/11/05 02:00:21;;;;;;;1.40;1.30;;;;;;;17.88;57.73;96037.55;103907;1285;75491;-37
2023/11/05 02:02:49;;;;;;;1.30;1.10;;;;;;;17.88;57.79;96035.01;103443;1284;66211;-37
2023/11/05 02:05:15;;;;;;;1.30;1.20;;;;;;;17.88;57.79;96035.84;103349;1281;72455;-37
2023/11/05 02:07:43;;;;;;;1.30;1.20;;;;;;;17.88;57.67;96029.59;103467;1282;62101;-37
2023/11/05 02:10:10;;;;;;;1.50;1.40;;;;;;;17.88;57.75;96037.40;103504;1280;62235;-38
2023/11/05 02:12:37;;;;;;;1.90;1.30;;;;;;;17.87;57.69;96045.84;103455;1282;75336;-37
2023/11/05 02:15:05;;;;;;;1.40;1.30;;;;;;;17.87;57.80;96054.66;103300;1281;66227;-38
2023/11/05 02:17:32;;;;;;;1.40;1.30;;;;;;;17.87;57.78;96058.84;103380;1280;72749;-37
2023/11/05 02:19:59;;;;;;;1.50;1.40;;;;;;;17.87;57.70;96064.88;103465;1286;62062;-37
2023/11/05 02:22:26;;;;;;;1.40;1.30;;;;;;;17.86;57.66;96067.66;103444;1281;62119;-37
2023/11/05 02:24:53;;;;;;;1.70;1.30;;;;;;;17.86;57.73;96069.44;103484;1280;75420;-37
2023/11/05 02:27:20;;;;;;;1.40;1.30;;;;;;;17.87;57.64;96072.22;103636;1282;66141;-38
2023/11/05 02:29:47;;;;;;;1.30;1.20;;;;;;;17.86;57.63;96075.46;103396;1285;72686;-37
2023/11/05 02:32:15;;;;;;;1.40;1.30;;;;;;;17.86;57.73;96072.30;103571;1285;62101;-37
2023/11/05 02:34:41;;;;;;;1.40;1.20;;;;;;;17.87;57.72;96079.11;103865;1280;62078;-37
2023/11/05 02:37:08;;;;;;;1.80;1.40;;;;;;;17.86;57.70;96079.80;103875;1280;75252;-37
2023/11/05 02:39:35;;;;;;;1.40;1.30;;;;;;;17.86;57.67;96078.48;103583;1280;62201;-37
2023/11/05 02:42:01;;;;;;;1.30;1.20;;;;;;;17.86;57.76;96079.10;103431;1281;62184;-37
2023/11/05 02:44:28;;;;;;;1.60;1.30;;;;;;;17.86;57.78;96080.95;103522;1284;62178;-37
2023/11/05 02:46:54;;;;;;;1.30;1.20;;;;;;;17.86;57.77;96078.33;103590;1282;62101;-37
2023/11/05 02:49:21;;;;;;;2.40;1.30;;;;;;;17.85;57.79;96077.09;103646;1282;75495;-37
2023/11/05 02:51:48;;;;;;;1.40;1.30;;;;;;;17.85;57.76;96082.90;103664;1282;66092;-37
2023/11/05 02:54:14;;;;;;;1.70;1.20;;;;;;;17.85;57.80;96083.60;103798;1282;72673;-37
2023/11/05 02:56:41;;;;;;;1.40;1.30;;;;;;;17.85;57.78;96083.73;103846;1283;61999;-37
2023/11/05 02:59:07;;;;;;;1.30;1.20;;;;;;;17.85;57.74;96086.38;103824;1280;62151;-37
2023/11/05 03:01:36;;;;;;;1.40;1.30;;;;;;;17.85;57.66;96088.85;103751;1286;75384;-37
2023/11/05 03:04:03;;;;;;;1.30;1.20;;;;;;;17.84;57.71;96090.16;103816;1280;66203;-37
2023/11/05 03:06:30;;;;;;;1.40;1.30;;;;;;;17.84;57.78;96092.17;103841;1282;72480;-37
2023/11/05 03:08:56;;;;;;;1.50;1.40;;;;;;;17.84;57.67;96090.08;103782;1282;62128;-37
2023/11/05 03:11:23;;;;;;;1.40;1.30;;;;;;;17.84;57.76;96081.88;103862;1282;62206;-37
2023/11/05 03:13:49;;;;;;;1.30;1.20;;;;;;;17.84;57.69;96076.70;103853;1282;75425;-37
2023/11/05 03:16:16;;;;;;;1.80;1.10;;;;;;;17.84;57.63;96068.49;103821;1280;67160;-37
2023/11/05 03:18:42;;;;;;;1.70;1.00;;;;;;;17.84;57.67;96067.96;103808;1282;72558;-37
2023/11/05 03:21:14;;;;;;;1.30;1.20;;;;;;;17.84;57.67;96065.09;103867;1283;62114;-37
2023/11/05 03:23:40;;;;;;;1.40;1.30;;;;;;;17.84;57.62;96071.98;103502;1282;62104;-37
2023/11/05 03:26:07;;;;;;;1.30;1.10;;;;;;;17.83;57.72;96070.90;103450;1282;75212;-37
2023/11/05 03:28:34;;;;;;;1.60;1.50;;;;;;;17.83;57.70;96073.84;103510;1280;66370;-37
2023/11/05 03:31:01;;;;;;;1.60;1.30;;;;;;;17.83;57.79;96079.41;103889;1280;72509;-37
2023/11/05 03:33:27;;;;;;;1.20;1.10;;;;;;;17.83;57.63;96081.80;103855;1283;62095;-37
2023/11/05 03:35:54;;;;;;;1.30;1.10;;;;;;;17.83;57.69;96082.73;103863;1280;62127;-37
2023/11/05 03:38:20;;;;;;;1.30;1.20;;;;;;;17.82;57.73;96086.05;103815;1280;62112;-39
2023/11/05 03:40:47;;;;;;;1.50;1.10;;;;;;;17.83;57.64;96089.32;105025;1279;66353;-39
2023/11/05 03:43:14;;;;;;;1.70;1.40;;;;;;;17.82;57.69;96083.89;105973;1279;70274;-38
2023/11/05 03:45:40;;;;;;;1.30;1.20;;;;;;;17.82;57.65;96078.24;103524;1283;62072;-38
2023/11/05 03:48:07;;;;;;;1.20;1.10;;;;;;;17.83;57.73;96072.05;103909;1280;62263;-39
2023/11/05 03:50:34;;;;;;;1.20;1.10;;;;;;;17.82;57.70;96072.05;103850;1282;75447;-38
2023/11/05 03:53:01;;;;;;;1.50;1.10;;;;;;;17.82;57.73;96066.24;103896;1283;67135;-38
2023/11/05 03:55:28;;;;;;;1.30;1.20;;;;;;;17.81;57.67;96069.80;104195;1282;72650;-38
2023/11/05 03:57:55;;;;;;;1.30;1.20;;;;;;;17.82;57.67;96066.95;103880;1282;62075;-38
2023/11/05 04:00:21;;;;;;;1.40;1.30;;;;;;;17.82;57.58;96063.47;104193;1279;62107;-38
2023/11/05 04:02:49;;;;;;;1.20;1.10;;;;;;;17.82;57.62;96067.17;103483;1284;75297;-38
2023/11/05 04:05:16;;;;;;;1.30;1.10;;;;;;;17.82;57.68;96068.73;103728;1282;66079;-38
2023/11/05 04:07:43;;;;;;;1.60;1.30;;;;;;;17.82;57.62;96070.27;103618;1282;72629;-38
2023/11/05 04:10:14;;;;;;;2.20;1.20;;;;;;;17.81;57.63;96074.67;103493;1280;62139;-38
2023/11/05 04:12:40;;;;;;;1.30;1.20;;;;;;;17.82;57.62;96080.25;103602;1278;62119;-38
2023/11/05 04:15:08;;;;;;;1.60;1.30;;;;;;;17.82;57.63;96076.38;103503;1285;62161;-38
2023/11/05 04:17:34;;;;;;;1.30;1.20;;;;;;;17.82;57.56;96080.25;103885;1284;65776;-38
2023/11/05 04:20:05;;;;;;;1.50;1.30;;;;;;;17.81;57.60;96079.85;103754;1283;72489;-38
2023/11/05 04:22:33;;;;;;;1.20;1.10;;;;;;;17.80;57.66;96087.21;103762;1282;62147;-38
2023/11/05 04:25:01;;;;;;;1.30;1.20;;;;;;;17.80;57.61;96096.95;103845;1280;62216;-38
2023/11/05 04:27:27;;;;;;;1.30;1.20;;;;;;;17.80;57.61;96099.12;103858;1282;75319;-38
2023/11/05 04:29:54;;;;;;;1.20;1.00;;;;;;;17.80;57.59;96102.15;103808;1282;65849;-38
2023/11/05 04:32:21;;;;;;;1.50;1.30;;;;;;;17.80;57.61;96103.61;103830;1280;72437;-38
2023/11/05 04:34:47;;;;;;;1.10;1.00;;;;;;;17.80;57.64;96103.60;103675;1282;62076;-38
2023/11/05 04:37:14;;;;;;;1.10;1.00;;;;;;;17.80;57.59;96107.87;103586;1282;62133;-37
2023/11/05 04:39:41;;;;;;;1.40;1.30;;;;;;;17.80;57.66;96107.64;103765;1282;75227;-37
2023/11/05 04:42:10;;;;;;;1.20;1.10;;;;;;;17.79;57.64;96106.47;103815;1282;66190;-37
2023/11/05 04:44:37;;;;;;;1.00;1.00;;;;;;;17.79;57.62;96103.98;103629;1280;72748;-37
2023/11/05 04:47:05;;;;;;;1.40;1.00;;;;;;;17.78;57.59;96099.42;103538;1285;62101;-37
2023/11/05 04:49:32;;;;;;;1.40;1.30;;;;;;;17.78;57.63;96093.24;103552;1282;62008;-37
2023/11/05 04:51:58;;;;;;;1.20;1.10;;;;;;;17.78;57.55;96093.86;103580;1282;75296;-37
2023/11/05 04:54:25;;;;;;;1.10;1.00;;;;;;;17.77;57.63;96086.28;103476;1282;66024;-38
2023/11/05 04:56:51;;;;;;;1.30;1.00;;;;;;;17.78;57.56;96086.27;103485;1280;62210;-37
2023/11/05 04:59:18;;;;;;;1.50;1.40;;;;;;;17.77;57.58;96086.42;103650;1280;62190;-37
2023/11/05 05:01:44;;;;;;;1.40;1.30;;;;;;;17.77;57.61;96084.88;103476;1280;62132;-37
2023/11/05 05:04:11;;;;;;;1.60;1.40;;;;;;;17.76;57.62;96074.90;103392;1280;75234;-38
2023/11/05 05:06:38;;;;;;;1.10;1.10;;;;;;;17.77;57.62;96073.44;103486;1283;65961;-37
2023/11/05 05:09:09;;;;;;;1.30;1.20;;;;;;;17.77;57.62;96074.13;103622;1282;72414;-37
2023/11/05 05:11:35;;;;;;;1.40;1.30;;;;;;;17.76;57.57;96077.52;103676;1282;62120;-37
2023/11/05 05:14:02;;;;;;;1.00;0.90;;;;;;;17.76;57.63;96072.81;103401;1282;62106;-37
2023/11/05 05:16:29;;;;;;;1.70;1.10;;;;;;;17.77;57.63;96070.57;103430;1282;75310;-37
2023/11/05 05:18:56;;;;;;;1.20;1.10;;;;;;;17.75;57.66;96063.44;103588;1285;66234;-37
2023/11/05 05:21:22;;;;;;;1.20;1.00;;;;;;;17.76;57.65;96067.94;103738;1280;72697;-37
2023/11/05 05:23:49;;;;;;;0.90;0.90;;;;;;;17.75;57.60;96066.70;103801;1280;62097;-37
2023/11/05 05:26:16;;;;;;;1.20;1.10;;;;;;;17.76;57.57;96062.29;103841;1280;62092;-37
2023/11/05 05:28:47;;;;;;;1.60;1.20;;;;;;;17.75;57.63;96064.30;103818;1283;75254;-37
2023/11/05 05:31:14;;;;;;;1.10;1.00;;;;;;;17.75;57.57;96065.14;103917;1283;64870;-37
2023/11/05 05:33:41;;;;;;;1.60;1.30;;;;;;;17.75;57.64;96068.94;103847;1280;72718;-37
2023/11/05 05:36:08;;;;;;;1.20;1.10;;;;;;;17.75;57.57;96068.86;103788;1282;62094;-38
2023/11/05 05:38:35;;;;;;;1.40;1.30;;;;;;;17.75;57.60;96070.41;103662;1282;62159;-37
2023/11/05 05:41:02;;;;;;;1.50;1.20;;;;;;;17.75;57.63;96074.52;103528;1284;75295;-38
2023/11/05 05:43:29;;;;;;;1.50;1.10;;;;;;;17.75;57.52;96074.05;103638;1283;66686;-37
2023/11/05 05:45:55;;;;;;;2.00;1.20;;;;;;;17.75;57.53;96074.13;103482;1282;72612;-37
2023/11/05 05:48:22;;;;;;;1.20;1.10;;;;;;;17.75;57.62;96071.41;103739;1289;62232;-37
2023/11/05 05:50:49;;;;;;;1.50;1.10;;;;;;;17.75;57.52;96067.92;103523;1285;62210;-37
2023/11/05 05:53:15;;;;;;;1.50;1.10;;;;;;;17.75;57.50;96069.48;103618;1283;75465;-37
2023/11/05 05:55:42;;;;;;;1.40;1.20;;;;;;;17.75;57.50;96065.23;103853;1280;66630;-37
2023/11/05 05:58:08;;;;;;;1.30;1.20;;;;;;;17.75;57.58;96057.73;103872;1282;72501;-37
2023/11/05 06:00:35;;;;;;;1.40;1.10;;;;;;;17.75;57.58;96050.69;103620;1282;62101;-37
2023/11/05 06:03:02;;;;;;;1.30;1.10;;;;;;;17.75;57.56;96046.97;103477;1280;62168;-37
2023/11/05 06:05:29;;;;;;;1.30;1.20;;;;;;;17.75;57.49;96044.27;103502;1283;74366;-37
2023/11/05 06:07:56;;;;;;;1.40;1.30;;;;;;;17.75;57.48;96044.58;103572;1280;66144;-38
2023/11/05 06:10:22;;;;;;;1.10;1.00;;;;;;;17.75;57.40;96037.08;104118;1282;62235;-37
2023/11/05 06:12:49;;;;;;;1.20;1.10;;;;;;;17.75;57.57;96040.48;103715;1282;62008;-37
2023/11/05 06:15:16;;;;;;;1.20;1.10;;;;;;;17.75;57.50;96037.23;103720;1286;62206;-37
2023/11/05 06:17:42;;;;;;;1.10;1.00;;;;;;;17.75;57.52;96026.24;103657;1287;75433;-38
2023/11/05 06:20:10;;;;;;;1.20;1.10;;;;;;;17.75;57.41;96017.42;104981;1279;66017;-40
2023/11/05 06:22:37;;;;;;;1.00;0.90;;;;;;;17.75;57.54;96017.65;104906;1280;71571;-39
2023/11/05 06:25:08;;;;;;;1.10;1.00;;;;;;;17.74;57.45;96021.05;103705;1282;62127;-39
2023/11/05 06:27:35;;;;;;;1.10;1.00;;;;;;;17.76;57.47;96024.30;103928;1286;62184;-40
2023/11/05 06:30:03;;;;;;;1.30;1.10;;;;;;;17.76;57.51;96023.14;103840;1285;75241;-38
2023/11/05 06:32:30;;;;;;;1.40;1.30;;;;;;;17.76;57.47;96022.60;103879;1282;65621;-37
2023/11/05 06:34:57;;;;;;;1.20;1.10;;;;;;;17.76;57.48;96022.21;103874;1283;72350;-37
2023/11/05 06:37:27;;;;;;;1.20;1.10;;;;;;;17.77;57.40;96020.14;103917;1293;62136;-37
2023/11/05 06:39:53;;;;;;;1.00;1.00;;;;;;;17.77;57.37;96011.85;103839;1280;62216;-37
2023/11/05 06:42:20;;;;;;;1.00;0.90;;;;;;;17.77;57.38;96009.99;103451;1282;75430;-37
2023/11/05 06:44:47;;;;;;;1.40;1.10;;;;;;;17.78;57.41;96011.86;103576;1283;66118;-37
2023/11/05 06:47:13;;;;;;;1.20;1.10;;;;;;;17.78;57.38;96008.60;103477;1284;62117;-37
2023/11/05 06:49:40;;;;;;;1.20;1.10;;;;;;;17.78;57.46;96008.92;103525;1280;62215;-37
2023/11/05 06:52:07;;;;;;;1.10;1.00;;;;;;;17.78;57.39;96012.39;103638;1279;62270;-37
2023/11/05 06:54:34;;;;;;;0.90;0.90;;;;;;;17.77;57.39;96017.50;103564;1285;75361;-37
2023/11/05 06:57:03;;;;;;;1.30;1.20;;;;;;;17.78;57.41;96018.35;103635;1284;66138;-37
2023/11/05 06:59:29;;;;;;;1.20;1.10;;;;;;;17.78;57.39;96013.86;103589;1283;72719;-37
2023/11/05 07:01:56;;;;;;;1.20;1.10;;;;;;;17.78;57.34;96017.27;103573;1285;62015;-37
2023/11/05 07:04:22;;;;;;;1.20;1.10;;;;;;;17.78;57.36;96015.34;103704;1280;62212;-37
2023/11/05 07:06:50;;;;;;;1.10;1.00;;;;;;;17.78;57.34;96022.68;103553;1286;75558;-37
2023/11/05 07:09:16;;;;;;;1.10;1.00;;;;;;;17.78;57.24;96018.34;103486;1283;66208;-37
2023/11/05 07:11:43;;;;;;;1.40;1.00;;;;;;;17.78;57.37;96012.63;103689;1280;72558;-37
2023/11/05 07:14:10;;;;;;;1.20;0.90;;;;;;;17.78;57.21;96018.04;103670;1284;62206;-37
2023/11/05 07:16:37;;;;;;;1.10;1.00;;;;;;;17.78;57.33;96020.36;103585;1281;62159;-37
2023/11/05 07:19:04;;;;;;;1.00;0.90;;;;;;;17.78;57.29;96010.85;103555;1283;75471;-37
2023/11/05 07:21:31;;;;;;;1.10;1.00;;;;;;;17.78;57.35;96004.89;103493;1283;65923;-37
2023/11/05 07:23:58;;;;;;;1.00;0.90;;;;;;;17.78;57.31;96003.20;103488;1283;72347;-38
2023/11/05 07:26:25;;;;;;;0.90;0.90;;;;;;;17.78;57.36;96003.65;103589;1285;62254;-39
2023/11/05 07:28:52;;;;;;;1.30;1.10;;;;;;;17.78;57.22;96002.81;103823;1285;62134;-37
2023/11/05 07:31:21;;;;;;;1.10;1.00;;;;;;;17.78;57.33;96007.75;103531;1283;75287;-38
2023/11/05 07:33:48;;;;;;;1.00;0.90;;;;;;;17.78;57.25;96002.95;103802;1286;66277;-38
2023/11/05 07:36:15;;;;;;;1.00;0.90;;;;;;;17.77;57.28;96000.88;103886;1283;73111;-37
2023/11/05 07:38:42;;;;;;;0.90;0.80;;;;;;;17.78;57.29;96001.10;103734;1284;62098;-37
2023/11/05 07:41:08;;;;;;;1.10;1.00;;;;;;;17.78;57.34;96000.02;103460;1281;62078;-37
2023/11/05 07:43:35;;;;;;;1.20;1.10;;;;;;;17.78;57.28;95998.33;103745;1280;74322;-37
2023/11/05 07:46:01;;;;;;;1.10;1.00;;;;;;;17.78;57.33;95995.23;103485;1283;66068;-37
2023/11/05 07:48:28;;;;;;;1.20;1.10;;;;;;;17.78;57.24;95998.63;103703;1285;72459;-38
2023/11/05 07:50:55;;;;;;;1.00;0.90;;;;;;;17.78;57.26;95998.23;103525;1283;62092;-38
2023/11/05 07:53:21;;;;;;;1.10;1.00;;;;;;;17.78;57.30;96001.03;103733;1280;62114;-37
2023/11/05 07:55:48;;;;;;;1.60;1.20;;;;;;;17.78;57.32;95999.16;103840;1280;75263;-37
2023/11/05 07:58:15;;;;;;;1.20;1.10;;;;;;;17.78;57.30;95986.94;103907;1283;66308;-37
2023/11/05 08:00:44;;;;;;;0.90;0.90;;;;;;;17.78;57.23;95980.60;103526;1286;72616;-37
2023/11/05 08:03:11;;;;;;;1.00;0.90;;;;;;;17.78;57.23;95979.51;103455;1283;62079;-38
2023/11/05 08:05:37;;;;;;;2.10;1.10;;;;;;;17.78;57.21;95976.03;103600;1280;62172;-37
2023/11/05 08:08:04;;;;;;;1.50;0.90;;;;;;;17.78;57.20;95981.30;103386;1282;75720;-37
2023/11/05 08:10:31;;;;;;;1.10;0.90;;;;;;;17.78;57.27;95977.73;103879;1283;66487;-37
2023/11/05 08:12:58;;;;;;;0.90;0.90;;;;;;;17.79;57.25;95972.55;103530;1280;72510;-37
2023/11/05 08:15:24;;;;;;;1.60;1.30;;;;;;;17.80;57.27;95969.70;103452;1282;62048;-37
2023/11/05 08:17:51;;;;;;;1.20;0.90;;;;;;;17.79;57.20;95966.67;103872;1283;62203;-37
2023/11/05 08:20:18;;;;;;;1.60;1.10;;;;;;;17.80;57.24;95968.07;104217;1284;75199;-37
2023/11/05 08:22:45;;;;;;;1.10;1.00;;;;;;;17.79;57.13;95969.77;103879;1283;66192;-37
2023/11/05 08:25:12;;;;;;;1.40;1.00;;;;;;;17.79;57.15;95974.80;103597;1280;72582;-37
2023/11/05 08:27:40;;;;;;;1.20;1.10;;;;;;;17.80;57.20;95985.95;103499;1283;62216;-37
2023/11/05 08:30:11;;;;;;;0.90;0.90;;;;;;;17.80;57.22;95991.66;103457;1283;62178;-37
2023/11/05 08:32:39;;;;;;;1.20;1.10;;;;;;;17.80;57.24;95990.20;103490;1283;75575;-37
2023/11/05 08:35:06;;;;;;;1.20;1.00;;;;;;;17.80;57.21;95990.11;103463;1283;66128;-37
2023/11/05 08:37:34;;;;;;;1.00;0.90;;;;;;;17.80;57.28;95991.74;103533;1283;72756;-37
2023/11/05 08:40:02;;;;;;;1.00;0.90;;;;;;;17.80;57.13;95995.69;103506;1282;62091;-37
2023/11/05 08:42:29;;;;;;;1.00;1.00;;;;;;;17.81;57.12;95991.05;103820;1282;62105;-37
2023/11/05 08:44:55;;;;;;;1.20;1.10;;;;;;;17.81;57.17;95991.66;103697;1284;75334;-37
2023/11/05 08:47:22;;;;;;;0.90;0.80;;;;;;;17.81;57.15;95996.39;103616;1283;66135;-37
2023/11/05 08:49:49;;;;;;;0.90;0.90;;;;;;;17.81;57.18;95992.43;103418;1282;62197;-37
2023/11/05 08:52:16;;;;;;;1.20;1.10;;;;;;;17.82;57.17;95994.68;103519;1280;156160;-37
2023/11/05 08:54:43;;;;;;;1.30;1.20;;;;;;;17.81;57.18;95997.15;103796;1282;62055;-38
2023/11/05 08:57:09;;;;;;;0.90;0.90;;;;;;;17.81;57.16;95994.45;103494;1283;75389;-38
2023/11/05 08:59:36;;;;;;;1.10;1.00;;;;;;;17.81;57.20;95988.27;104935;1279;66019;-38
2023/11/05 09:02:02;;;;;;;0.90;0.80;;;;;;;17.81;57.17;95989.95;105459;1282;61145;-38
2023/11/05 09:04:29;;;;;;;1.10;1.00;;;;;;;17.82;57.11;95985.02;103647;1284;62444;-37
2023/11/05 09:06:56;;;;;;;1.30;1.20;;;;;;;17.82;57.12;95987.11;103892;1280;62148;-40
2023/11/05 09:09:23;;;;;;;1.00;1.00;;;;;;;17.82;57.13;95988.35;103657;1282;75589;-37
2023/11/05 09:11:50;;;;;;;1.10;1.00;;;;;;;17.83;57.06;95982.70;103646;1280;66135;-39
2023/11/05 09:14:16;;;;;;;1.10;1.00;;;;;;;17.83;57.05;95977.59;103615;1280;72429;-37
2023/11/05 09:16:43;;;;;;;0.90;0.90;;;;;;;17.83;57.06;95971.33;103761;1282;61995;-37
2023/11/05 09:19:10;;;;;;;0.90;0.90;;;;;;;17.83;57.00;95967.00;103623;1283;62195;-37
2023/11/05 09:21:41;;;;;;;0.90;0.90;;;;;;;17.82;57.06;95962.81;103746;1283;75856;-37
2023/11/05 09:24:09;;;;;;;1.20;1.00;;;;;;;17.82;57.09;95953.60;103796;1282;66997;-37
2023/11/05 09:26:36;;;;;;;1.20;1.10;;;;;;;17.82;57.12;95945.80;103564;1283;73135;-38
2023/11/05 09:29:04;;;;;;;0.80;0.80;;;;;;;17.82;57.03;95942.93;103435;1282;62096;-36
2023/11/05 09:31:31;;;;;;;1.00;0.90;;;;;;;17.82;57.07;95935.81;103693;1280;62695;-40
2023/11/05 09:33:57;;;;;;;0.80;0.80;;;;;;;17.82;57.04;95928.53;103591;1282;76455;-37
2023/11/05 09:36:24;;;;;;;1.10;1.00;;;;;;;17.82;57.11;95929.86;103535;1282;67365;-36
2023/11/05 09:38:51;;;;;;;1.30;1.10;;;;;;;17.82;57.08;95931.01;103524;1282;73216;-38
2023/11/05 09:41:18;;;;;;;1.00;0.80;;;;;;;17.82;57.03;95929.69;103651;1282;62094;-37
2023/11/05 09:43:48;;;;;;;1.00;0.90;;;;;;;17.81;57.07;95924.51;103616;1282;62213;-39
2023/11/05 09:46:15;;;;;;;0.80;0.80;;;;;;;17.81;57.02;95916.85;103574;1280;74688;-39
2023/11/05 09:48:41;;;;;;;1.00;1.00;;;;;;;17.81;57.02;95914.13;103466;1282;66125;-38
2023/11/05 09:51:12;;;;;;;1.00;0.90;;;;;;;17.81;57.05;95922.73;103508;1280;72617;-38
2023/11/05 09:53:39;;;;;;;1.00;0.90;;;;;;;17.81;57.04;95922.73;103565;1282;62059;-38
2023/11/05 09:56:06;;;;;;;1.20;1.00;;;;;;;17.81;57.09;95927.76;103487;1280;62190;-38
2023/11/05 09:58:33;;;;;;;0.70;0.70;;;;;;;17.81;57.05;95921.02;103511;1283;75218;-37
2023/11/05 10:01:00;;;;;;;1.10;0.90;;;;;;;17.81;56.96;95920.57;103550;1282;65470;-40
2023/11/05 10:03:26;;;;;;;1.00;1.00;;;;;;;17.81;57.07;95923.49;103452;1280;72460;-40
2023/11/05 10:05:55;;;;;;;1.10;0.90;;;;;;;17.81;57.00;95923.34;103662;1282;62079;-39
2023/11/05 10:08:23;;;;;;;1.10;1.00;;;;;;;17.82;57.06;95926.06;103490;1280;62188;-41
2023/11/05 10:10:52;;;;;;;1.00;0.80;;;;;;;17.81;57.06;95926.52;103478;1283;75489;-39
2023/11/05 10:13:18;;;;;;;0.90;0.80;;;;;;;17.81;57.01;95923.11;103428;1280;67504;-41
2023/11/05 10:15:45;;;;;;;1.10;1.00;;;;;;;17.81;57.04;95920.71;103466;1282;73716;-40
2023/11/05 10:18:15;;;;;;;0.90;0.80;;;;;;;17.81;57.07;95910.89;103537;1282;62165;-40
2023/11/05 10:20:53;;;;;;;1.00;0.90;;;;;;;17.81;57.06;95914.44;103713;1280;62130;-39
2023/11/05 10:23:19;;;;;;;1.20;1.10;;;;;;;17.81;57.05;95908.95;103414;1285;76295;-39
2023/11/05 10:25:47;;;;;;;0.90;0.90;;;;;;;17.81;57.12;95903.94;103507;1283;67413;-40
2023/11/05 10:28:13;;;;;;;1.30;1.20;;;;;;;17.81;57.04;95904.94;103445;1282;73580;-39
2023/11/05 10:30:41;;;;;;;1.00;0.90;;;;;;;17.81;57.00;95902.62;103413;1280;62140;-39
2023/11/05 10:33:08;;;;;;;0.90;0.90;;;;;;;17.81;56.99;95900.44;103468;1282;62127;-39
2023/11/05 10:35:35;;;;;;;1.10;1.00;;;;;;;17.81;57.10;95892.48;103566;1284;75679;-39
2023/11/05 10:38:02;;;;;;;0.90;0.80;;;;;;;17.81;56.96;95889.93;103511;1282;66080;-40
2023/11/05 10:40:29;;;;;;;1.00;0.90;;;;;;;17.81;57.00;95889.31;103440;1280;72631;-41
2023/11/05 10:42:56;;;;;;;0.80;0.80;;;;;;;17.81;57.06;95884.28;103415;1282;62683;-38
2023/11/05 10:45:22;;;;;;;1.10;1.00;;;;;;;17.82;57.02;95888.30;103966;1281;62160;-39
2023/11/05 10:47:52;;;;;;;1.00;0.90;;;;;;;17.81;56.97;95887.38;103365;1280;75433;-40
2023/11/05 10:50:26;;;;;;;1.10;1.00;;;;;;;17.81;57.01;95883.28;104028;1282;65938;-38
2023/11/05 10:52:59;;;;;;;1.00;0.90;;;;;;;17.81;56.99;95886.29;103502;1280;72574;-39
2023/11/05 10:55:34;;;;;;;0.90;0.90;;;;;;;17.82;57.05;95886.07;103968;1281;62229;-39
2023/11/05 10:58:06;;;;;;;1.40;1.00;;;;;;;17.82;57.04;95885.45;103489;1281;62155;-38
2023/11/05 11:00:56;;;;;;;0.80;0.80;;;;;;;17.83;56.99;95871.30;103445;1281;75446;-38
2023/11/05 11:03:25;;;;;;;0.80;0.80;;;;;;;17.83;57.02;95860.15;103501;1280;66194;-38
2023/11/05 11:05:55;;;;;;;1.20;1.10;;;;;;;17.83;56.92;95853.81;103369;1280;72781;-37
2023/11/05 11:08:23;;;;;;;0.90;0.90;;;;;;;17.83;56.95;95836.71;103679;1279;62011;-38
2023/11/05 11:10:49;;;;;;;1.10;1.00;;;;;;;17.84;56.99;95831.14;103757;1280;62177;-38
2023/11/05 11:13:30;;;;;;;0.80;0.80;;;;;;;17.84;56.97;95825.41;103427;1280;75574;-38
2023/11/05 11:16:00;;;;;;;0.90;0.80;;;;;;;17.83;56.86;95819.99;103473;1280;66337;-39
2023/11/05 11:18:27;;;;;;;1.60;0.80;;;;;;;17.84;56.95;95819.68;103705;1283;72583;-38
2023/11/05 11:20:56;;;;;;;0.80;0.80;;;;;;;17.84;56.95;95817.59;103624;1282;62104;-39
2023/11/05 11:23:26;;;;;;;1.10;1.00;;;;;;;17.83;56.90;95808.46;103554;1280;62104;-39